createdAt,value
2023-08-07T00:00:45.641Z,12.00
2023-08-07T00:10:50.417Z,11.80
2023-08-07T00:20:53.624Z,11.90
2023-08-07T00:30:59.147Z,12.00
2023-08-07T00:41:02.621Z,12.00
2023-08-07T00:51:09.080Z,12.20
2023-08-07T01:01:12.660Z,12.00
2023-08-07T01:11:23.323Z,12.00
2023-08-07T01:21:26.625Z,12.20
2023-08-07T01:31:34.126Z,12.00
2023-08-07T01:41:38.252Z,12.50
2023-08-07T01:51:45.777Z,12.30
2023-08-07T02:01:49.004Z,12.50
2023-08-07T02:11:55.412Z,12.20
2023-08-07T02:21:58.666Z,12.00
2023-08-07T02:32:04.091Z,12.00
2023-08-07T02:42:08.588Z,11.80
2023-08-07T02:52:13.309Z,11.40
2023-08-07T03:02:18.460Z,11.20
2023-08-07T03:12:23.014Z,11.40
2023-08-07T03:22:26.244Z,11.40
2023-08-07T03:32:31.429Z,11.60
2023-08-07T03:42:37.062Z,11.70
2023-08-07T03:52:42.788Z,11.70
2023-08-07T04:02:47.284Z,12.10
2023-08-07T04:12:52.727Z,12.30
2023-08-07T04:22:55.976Z,12.50
2023-08-07T04:33:01.060Z,12.90
2023-08-07T04:43:04.574Z,13.40
2023-08-07T04:53:09.344Z,13.90
2023-08-07T05:03:12.708Z,14.50
2023-08-07T05:13:17.320Z,14.80
2023-08-07T05:23:22.758Z,14.60
2023-08-07T05:33:27.402Z,14.90
2023-08-07T05:43:30.642Z,15.10
2023-08-07T05:53:36.118Z,15.10
2023-08-07T06:03:41.781Z,15.20
2023-08-07T06:13:46.336Z,15.60
2023-08-07T06:23:49.600Z,15.50
2023-08-07T06:33:54.153Z,16.10
2023-08-07T06:43:57.343Z,16.70
2023-08-07T06:54:01.912Z,17.50
2023-08-07T07:04:05.356Z,18.30
2023-08-07T07:14:09.946Z,19.10
2023-08-07T07:24:13.154Z,20.90
2023-08-07T07:34:18.639Z,20.00
2023-08-07T07:44:21.838Z,20.50
2023-08-07T07:54:26.459Z,20.50
2023-08-07T08:04:30.951Z,18.60
2023-08-07T08:14:50.647Z,20.60
2023-08-07T08:24:58.805Z,20.20
2023-08-07T08:35:06.297Z,21.40
2023-08-07T08:45:11.811Z,24.30
2023-08-07T08:55:16.610Z,27.10
2023-08-07T09:05:20.952Z,24.90
2023-08-07T09:15:25.873Z,23.50
2023-08-07T09:25:29.865Z,23.40
2023-08-07T09:35:35.049Z,22.30
2023-08-07T09:45:38.808Z,24.50
2023-08-07T09:55:43.336Z,30.20
2023-08-07T10:05:47.411Z,31.20
2023-08-07T10:15:52.198Z,30.90
2023-08-07T10:25:58.129Z,35.10
2023-08-07T10:36:04.853Z,35.00
2023-08-07T10:46:08.639Z,28.90
2023-08-07T10:56:18.314Z,31.50
2023-08-07T11:06:28.427Z,38.30
2023-08-07T11:16:33.193Z,27.40
2023-08-07T11:26:36.453Z,23.90
2023-08-07T11:36:44.003Z,22.60
2023-08-07T11:46:47.646Z,24.10
2023-08-07T11:56:54.055Z,20.40
2023-08-07T12:06:58.907Z,19.70
2023-08-07T12:17:05.303Z,19.70
2023-08-07T12:27:09.343Z,19.70
2023-08-07T12:37:14.092Z,19.10
2023-08-07T12:47:19.373Z,17.60
2023-08-07T12:57:27.459Z,16.10
2023-08-07T13:07:32.975Z,16.00
2023-08-07T13:17:37.725Z,16.70
2023-08-07T13:27:45.096Z,19.20
2023-08-07T13:37:49.650Z,21.00
2023-08-07T13:47:54.628Z,22.00
2023-08-07T13:58:00.511Z,21.10
2023-08-07T14:08:03.843Z,19.90
2023-08-07T14:18:08.482Z,19.00
2023-08-07T14:28:11.714Z,18.70
2023-08-07T14:38:17.356Z,18.50
2023-08-07T14:48:20.634Z,18.00
2023-08-07T14:58:27.227Z,18.00
2023-08-07T15:08:30.428Z,17.90
2023-08-07T15:18:34.980Z,17.60
2023-08-07T15:28:38.163Z,17.10
2023-08-07T15:38:44.923Z,16.80
2023-08-07T15:48:48.304Z,16.40
2023-08-07T15:58:52.984Z,16.50
2023-08-07T16:08:59.508Z,16.70
2023-08-07T16:19:04.167Z,16.00
2023-08-07T16:29:07.439Z,16.10
2023-08-07T16:39:12.108Z,16.40
2023-08-07T16:49:15.310Z,16.20
2023-08-07T16:59:19.956Z,15.70
2023-08-07T17:09:23.872Z,15.30
2023-08-07T17:19:28.546Z,15.10
2023-08-07T17:29:31.873Z,14.90
2023-08-07T17:39:38.773Z,14.40
2023-08-07T17:49:43.725Z,13.60
2023-08-07T17:59:52.079Z,13.20
2023-08-07T18:09:55.345Z,12.70
2023-08-07T18:20:00.183Z,12.40
2023-08-07T18:30:04.568Z,12.40
2023-08-07T18:40:12.618Z,12.30
2023-08-07T18:50:16.006Z,12.20
2023-08-07T19:00:20.826Z,11.70
2023-08-07T19:10:26.243Z,11.60
2023-08-07T19:20:30.896Z,11.40
2023-08-07T19:30:34.122Z,11.30
2023-08-07T19:40:38.759Z,11.40
2023-08-07T19:50:42.055Z,11.60
2023-08-07T20:00:46.642Z,11.90
2023-08-07T20:10:49.868Z,12.10
2023-08-07T20:20:55.247Z,12.60
2023-08-07T20:30:58.479Z,12.50
2023-08-07T20:41:03.937Z,12.70
2023-08-07T20:51:07.162Z,12.70
2023-08-07T21:01:14.924Z,12.80
2023-08-07T21:11:18.162Z,15.40
2023-08-07T21:21:25.580Z,12.80
2023-08-07T21:31:28.850Z,12.90
2023-08-07T21:41:33.450Z,12.80
2023-08-07T21:51:36.645Z,12.90
2023-08-07T22:01:43.366Z,12.80
2023-08-07T22:11:49.084Z,12.60
2023-08-07T22:21:53.706Z,12.80
2023-08-07T22:31:59.690Z,12.80
2023-08-07T22:42:04.665Z,12.50
2023-08-07T22:52:08.652Z,12.60
2023-08-07T23:02:15.067Z,12.70
2023-08-07T23:12:18.373Z,12.50
2023-08-07T23:22:25.108Z,12.40
2023-08-07T23:32:28.391Z,12.40
2023-08-07T23:42:35.043Z,12.40
2023-08-07T23:52:38.351Z,12.30
